createdAt,value
2017-07-28T00:00:01.097Z,1008.52
2017-07-28T00:01:23.341Z,1008.52
2017-07-28T00:02:45.491Z,1008.53
2017-07-28T00:04:08.045Z,1008.53
2017-07-28T00:05:29.886Z,1008.49
2017-07-28T00:06:51.743Z,1008.51
2017-07-28T00:08:13.582Z,1008.49
2017-07-28T00:09:35.726Z,1008.48
2017-07-28T00:10:57.569Z,1008.42
2017-07-28T00:12:19.737Z,1008.41
2017-07-28T00:13:42.230Z,1008.44
2017-07-28T00:15:04.997Z,1008.4
2017-07-28T00:16:26.856Z,1008.43
2017-07-28T00:17:49.027Z,1008.38
2017-07-28T00:19:11.251Z,1008.38
2017-07-28T00:20:33.981Z,1008.36
2017-07-28T00:21:55.817Z,1008.37
2017-07-28T00:23:17.950Z,1008.36
2017-07-28T00:24:40.100Z,1008.34
2017-07-28T00:26:02.188Z,1008.34
2017-07-28T00:27:24.088Z,1008.39
2017-07-28T00:28:46.578Z,1008.4
2017-07-28T00:30:08.467Z,1008.39
2017-07-28T00:31:31.196Z,1008.38
2017-07-28T00:32:52.729Z,1008.39
2017-07-28T00:34:14.246Z,1008.38
2017-07-28T00:35:35.451Z,1008.36
2017-07-28T00:36:57.697Z,1008.34
2017-07-28T00:38:20.167Z,1008.37
2017-07-28T00:39:42.619Z,1008.34
2017-07-28T00:41:04.769Z,1008.36
2017-07-28T00:42:27.021Z,1008.35
2017-07-28T00:43:48.546Z,1008.34
2017-07-28T00:45:10.476Z,1008.35
2017-07-28T00:46:32.300Z,1008.4
2017-07-28T00:47:54.386Z,1008.44
2017-07-28T00:49:16.278Z,1008.47
2017-07-28T00:50:37.912Z,1008.44
2017-07-28T00:51:59.756Z,1008.46
2017-07-28T00:53:21.838Z,1008.46
2017-07-28T00:54:43.986Z,1008.48
2017-07-28T00:56:06.147Z,1008.48
2017-07-28T00:57:28.398Z,1008.49
2017-07-28T00:58:50.967Z,1008.51
2017-07-28T01:00:13.196Z,1008.53
2017-07-28T01:01:34.776Z,1008.54
2017-07-28T01:02:57.266Z,1008.52
2017-07-28T01:04:19.345Z,1008.51
2017-07-28T01:05:41.204Z,1008.5
2017-07-28T01:07:03.378Z,1008.48
2017-07-28T01:08:24.885Z,1008.47
2017-07-28T01:09:47.077Z,1008.49
2017-07-28T01:11:08.273Z,1008.47
2017-07-28T01:12:30.516Z,1008.51
2017-07-28T01:13:52.706Z,1008.5
2017-07-28T01:15:15.305Z,1008.51
2017-07-28T01:16:36.826Z,1008.51
2017-07-28T01:17:58.636Z,1008.52
2017-07-28T01:19:20.456Z,1008.5
2017-07-28T01:20:42.988Z,1008.49
2017-07-28T01:22:04.818Z,1008.48
2017-07-28T01:23:26.974Z,1008.45
2017-07-28T01:24:48.569Z,1008.47
2017-07-28T01:26:10.786Z,1008.45
2017-07-28T01:27:32.617Z,1008.48
2017-07-28T01:28:55.373Z,1008.45
2017-07-28T01:30:17.522Z,1008.5
2017-07-28T01:31:38.960Z,1008.48
2017-07-28T01:33:00.816Z,1008.51
2017-07-28T01:34:22.465Z,1008.48
2017-07-28T01:35:44.714Z,1008.52
2017-07-28T01:37:06.658Z,1008.55
2017-07-28T01:38:28.956Z,1008.53
2017-07-28T01:39:50.838Z,1008.55
2017-07-28T01:41:12.702Z,1008.56
2017-07-28T01:42:35.307Z,1008.54
2017-07-28T01:43:57.454Z,1008.57
2017-07-28T01:45:19.058Z,1008.6
2017-07-28T01:46:40.895Z,1008.55
2017-07-28T01:48:03.036Z,1008.57
2017-07-28T01:49:25.191Z,1008.53
2017-07-28T01:50:46.836Z,1008.56
2017-07-28T01:52:09.303Z,1008.56
2017-07-28T01:53:31.167Z,1008.53
2017-07-28T01:54:52.752Z,1008.48
2017-07-28T01:56:14.591Z,1008.49
2017-07-28T01:57:36.438Z,1008.46
2017-07-28T01:58:58.941Z,1008.48
2017-07-28T02:00:20.146Z,1008.45
2017-07-28T02:01:42.354Z,1008.52
2017-07-28T02:03:04.536Z,1008.53
2017-07-28T02:04:26.095Z,1008.54
2017-07-28T02:05:48.256Z,1008.6
2017-07-28T02:07:10.126Z,1008.56
2017-07-28T02:08:31.696Z,1008.56
2017-07-28T02:09:54.417Z,1008.61
2017-07-28T02:11:16.593Z,1008.55
2017-07-28T02:12:39.055Z,1008.58
2017-07-28T02:14:01.297Z,1008.6
2017-07-28T02:15:23.426Z,1008.6
2017-07-28T02:16:45.556Z,1008.65
2017-07-28T02:18:07.688Z,1008.63
2017-07-28T02:19:29.855Z,1008.66
2017-07-28T02:20:52.036Z,1008.72
2017-07-28T02:22:14.183Z,1008.74
2017-07-28T02:23:36.036Z,1008.78
2017-07-28T02:24:56.962Z,1008.76
2017-07-28T02:26:19.454Z,1008.73
2017-07-28T02:27:41.615Z,1008.71
2017-07-28T02:29:04.297Z,1008.69
2017-07-28T02:30:26.176Z,1008.7
2017-07-28T02:31:48.927Z,1008.65
2017-07-28T02:33:11.065Z,1008.68
2017-07-28T02:34:32.693Z,1008.66
2017-07-28T02:35:54.947Z,1008.64
2017-07-28T02:37:17.355Z,1008.65
2017-07-28T02:38:38.981Z,1008.63
2017-07-28T02:40:01.544Z,1008.64
2017-07-28T02:41:23.486Z,1008.65
2017-07-28T02:42:45.566Z,1008.62
2017-07-28T02:44:07.415Z,1008.63
2017-07-28T02:45:29.669Z,1008.55
2017-07-28T02:46:51.524Z,1008.52
2017-07-28T02:48:13.667Z,1008.56
2017-07-28T02:49:35.808Z,1008.57
2017-07-28T02:50:58.012Z,1008.61
2017-07-28T02:52:19.953Z,1008.58
2017-07-28T02:53:42.527Z,1008.62
2017-07-28T02:55:04.387Z,1008.6
2017-07-28T02:56:26.235Z,1008.63
2017-07-28T02:57:47.738Z,1008.62
2017-07-28T02:59:10.196Z,1008.61
2017-07-28T03:00:32.115Z,1008.66
2017-07-28T03:01:54.046Z,1008.66
2017-07-28T03:03:15.928Z,1008.66
2017-07-28T03:04:38.428Z,1008.7
2017-07-28T03:06:00.577Z,1008.7
2017-07-28T03:07:22.712Z,1008.64
2017-07-28T03:08:44.676Z,1008.66
2017-07-28T03:10:06.876Z,1008.63
2017-07-28T03:11:29.046Z,1008.68
2017-07-28T03:12:50.866Z,1008.69
2017-07-28T03:14:12.836Z,1008.69
2017-07-28T03:15:35.006Z,1008.62
2017-07-28T03:16:56.965Z,1008.63
2017-07-28T03:18:19.108Z,1008.61
2017-07-28T03:19:41.553Z,1008.61
2017-07-28T03:21:03.346Z,1008.61
2017-07-28T03:22:24.866Z,1008.57
2017-07-28T03:23:47.341Z,1008.55
2017-07-28T03:25:09.486Z,1008.58
2017-07-28T03:26:31.585Z,1008.58
2017-07-28T03:27:53.406Z,1008.59
2017-07-28T03:29:15.015Z,1008.57
2017-07-28T03:30:36.856Z,1008.58
2017-07-28T03:31:59.366Z,1008.55
2017-07-28T03:33:21.576Z,1008.51
2017-07-28T03:34:43.904Z,1008.51
2017-07-28T03:36:05.101Z,1008.48
2017-07-28T03:37:26.565Z,1008.52
2017-07-28T03:38:48.388Z,1008.54
2017-07-28T03:40:10.224Z,1008.54
2017-07-28T03:41:31.844Z,1008.59
2017-07-28T03:42:53.963Z,1008.58
2017-07-28T03:44:16.123Z,1008.59
2017-07-28T03:45:38.266Z,1008.56
2017-07-28T03:47:00.437Z,1008.59
2017-07-28T03:48:23.298Z,1008.57
2017-07-28T03:49:45.126Z,1008.61
2017-07-28T03:51:06.963Z,1008.63
2017-07-28T03:52:28.594Z,1008.64
2017-07-28T03:53:51.004Z,1008.66
2017-07-28T03:55:12.520Z,1008.69
2017-07-28T03:56:34.418Z,1008.75
2017-07-28T03:57:56.346Z,1008.71
2017-07-28T03:59:18.528Z,1008.74
2017-07-28T04:00:39.733Z,1008.78
2017-07-28T04:02:01.579Z,1008.8
2017-07-28T04:03:24.016Z,1008.82
2017-07-28T04:04:46.455Z,1008.84
2017-07-28T04:06:08.735Z,1008.84
2017-07-28T04:07:31.202Z,1008.83
2017-07-28T04:08:52.726Z,1008.88
2017-07-28T04:10:15.459Z,1008.88
2017-07-28T04:11:37.304Z,1008.9
2017-07-28T04:12:59.444Z,1008.88
2017-07-28T04:14:20.631Z,1008.89
2017-07-28T04:15:43.021Z,1008.89
2017-07-28T04:17:04.848Z,1008.86
2017-07-28T04:18:27.003Z,1008.84
2017-07-28T04:19:48.517Z,1008.88
2017-07-28T04:21:10.276Z,1008.91
2017-07-28T04:22:32.176Z,1008.92
2017-07-28T04:23:54.645Z,1008.89
2017-07-28T04:25:16.164Z,1008.96
2017-07-28T04:26:38.935Z,1008.93
2017-07-28T04:28:01.105Z,1008.91
2017-07-28T04:29:22.930Z,1008.94
2017-07-28T04:30:44.756Z,1008.88
2017-07-28T04:32:06.940Z,1008.92
2017-07-28T04:33:29.095Z,1008.94
2017-07-28T04:34:51.237Z,1009.01
2017-07-28T04:36:13.076Z,1009.03
2017-07-28T04:37:35.796Z,1009.05
2017-07-28T04:38:57.748Z,1008.98
2017-07-28T04:40:19.937Z,1008.99
2017-07-28T04:41:42.388Z,1008.98
2017-07-28T04:43:03.896Z,1008.97
2017-07-28T04:44:25.736Z,1009.03
2017-07-28T04:45:47.705Z,1009.05
2017-07-28T04:47:09.927Z,1009.03
2017-07-28T04:48:32.384Z,1009.01
2017-07-28T04:49:53.907Z,1009.02
2017-07-28T04:51:16.065Z,1009.03
2017-07-28T04:52:37.910Z,1009.03
2017-07-28T04:54:00.328Z,1009.14
2017-07-28T04:55:22.576Z,1009.13
2017-07-28T04:56:44.726Z,1009.13
2017-07-28T04:58:06.557Z,1009.13
2017-07-28T04:59:28.997Z,1009.11
2017-07-28T05:00:50.837Z,1009.11
2017-07-28T05:02:12.666Z,1009.14
2017-07-28T05:03:34.798Z,1009.22
2017-07-28T05:04:56.976Z,1009.22
2017-07-28T05:06:18.187Z,1009.29
2017-07-28T05:07:40.745Z,1009.22
2017-07-28T05:09:02.251Z,1009.23
2017-07-28T05:10:24.448Z,1009.23
2017-07-28T05:11:46.605Z,1009.29
2017-07-28T05:13:08.745Z,1009.31
2017-07-28T05:14:30.678Z,1009.27
2017-07-28T05:15:53.587Z,1009.29
2017-07-28T05:17:15.560Z,1009.31
2017-07-28T05:18:37.731Z,1009.33
2017-07-28T05:19:59.636Z,1009.35
2017-07-28T05:21:21.087Z,1009.38
2017-07-28T05:22:42.613Z,1009.42
2017-07-28T05:24:04.744Z,1009.41
2017-07-28T05:25:26.884Z,1009.37
2017-07-28T05:26:49.366Z,1009.36
2017-07-28T05:28:11.557Z,1009.41
2017-07-28T05:29:33.736Z,1009.35
2017-07-28T05:30:55.885Z,1009.42
2017-07-28T05:32:18.367Z,1009.49
2017-07-28T05:33:40.206Z,1009.49
2017-07-28T05:35:01.419Z,1009.53
2017-07-28T05:36:23.679Z,1009.48
2017-07-28T05:37:46.086Z,1009.53
2017-07-28T05:39:07.947Z,1009.55
2017-07-28T05:40:29.785Z,1009.57
2017-07-28T05:41:51.634Z,1009.55
2017-07-28T05:43:13.407Z,1009.36
2017-07-28T05:44:35.050Z,1009.61
2017-07-28T05:45:57.223Z,1009.69
2017-07-28T05:47:18.838Z,1009.69
2017-07-28T05:48:41.598Z,1009.52
2017-07-28T05:50:03.216Z,1009.51
2017-07-28T05:51:25.375Z,1009.57
2017-07-28T05:52:47.856Z,1009.61
2017-07-28T05:54:10.323Z,1009.87
2017-07-28T05:55:32.796Z,1009.79
2017-07-28T05:56:54.958Z,1009.57
2017-07-28T05:58:17.117Z,1009.48
2017-07-28T05:59:39.680Z,1009.43
2017-07-28T06:01:01.832Z,1009.46
2017-07-28T06:02:23.348Z,1009.44
2017-07-28T06:03:45.187Z,1009.45
2017-07-28T06:05:06.658Z,1009.44
2017-07-28T06:06:29.116Z,1009.74
2017-07-28T06:07:51.714Z,1009.61
2017-07-28T06:09:13.859Z,1009.68
2017-07-28T06:10:36.314Z,1009.71
2017-07-28T06:11:58.171Z,1009.66
2017-07-28T06:13:20.319Z,1009.76
2017-07-28T06:14:42.524Z,1009.72
2017-07-28T06:16:04.997Z,1009.86
2017-07-28T06:17:26.526Z,1009.85
2017-07-28T06:18:48.371Z,1009.81
2017-07-28T06:20:10.353Z,1010.01
2017-07-28T06:21:32.978Z,1009.78
2017-07-28T06:22:54.828Z,1009.82
2017-07-28T06:24:17.348Z,1009.89
2017-07-28T06:25:39.826Z,1009.95
2017-07-28T06:27:02.117Z,1009.98
2017-07-28T06:28:23.819Z,1009.99
2017-07-28T06:29:45.667Z,1009.93
2017-07-28T06:31:08.369Z,1009.75
2017-07-28T06:32:30.797Z,1010.05
2017-07-28T06:33:52.961Z,1010.01
2017-07-28T06:35:15.144Z,1010.09
2017-07-28T06:36:37.748Z,1009.9
2017-07-28T06:38:00.667Z,1010.02
2017-07-28T06:39:22.287Z,1009.92
2017-07-28T06:40:43.798Z,1009.88
2017-07-28T06:42:05.452Z,1009.82
2017-07-28T06:43:27.881Z,1009.91
2017-07-28T06:44:50.367Z,1009.96
2017-07-28T06:46:12.605Z,1009.98
2017-07-28T06:47:34.547Z,1010.02
2017-07-28T06:48:56.983Z,1010.05
2017-07-28T06:50:19.469Z,1009.96
2017-07-28T06:51:41.337Z,1009.96
2017-07-28T06:53:03.318Z,1010.02
2017-07-28T06:54:26.283Z,1010.04
2017-07-28T06:55:48.134Z,1010.05
2017-07-28T06:57:10.407Z,1010.15
2017-07-28T06:58:32.424Z,1010.14
2017-07-28T06:59:54.633Z,1010.12
2017-07-28T07:01:17.131Z,1010.16
2017-07-28T07:02:38.994Z,1010.21
2017-07-28T07:04:01.177Z,1010.1
2017-07-28T07:05:23.003Z,1010.25
2017-07-28T07:06:45.175Z,1010.09
2017-07-28T07:08:07.683Z,1010.07
2017-07-28T07:09:29.396Z,1010.02
2017-07-28T07:10:51.302Z,1009.97
2017-07-28T07:12:12.639Z,1010.01
2017-07-28T07:13:35.117Z,1010.03
2017-07-28T07:14:56.968Z,1010.05
2017-07-28T07:16:19.706Z,1010.12
2017-07-28T07:17:41.879Z,1010.1
2017-07-28T07:19:04.168Z,1010.07
2017-07-28T07:20:25.704Z,1010.05
2017-07-28T07:21:48.561Z,1010.08
2017-07-28T07:23:10.436Z,1010.11
2017-07-28T07:24:32.607Z,1010.18
2017-07-28T07:25:54.480Z,1010.21
2017-07-28T07:27:17.009Z,1010.14
2017-07-28T07:28:38.545Z,1010.17
2017-07-28T07:30:00.168Z,1010.18
2017-07-28T07:31:22.358Z,1010.12
2017-07-28T07:32:44.796Z,1010.13
2017-07-28T07:34:06.647Z,1010.05
2017-07-28T07:35:28.579Z,1010.03
2017-07-28T07:36:50.480Z,1010.01
2017-07-28T07:38:12.600Z,1010.04
2017-07-28T07:39:35.231Z,1010.08
2017-07-28T07:40:57.503Z,1010.12
2017-07-28T07:42:20.016Z,1010.15
2017-07-28T07:43:41.993Z,1010.08
2017-07-28T07:45:04.297Z,1010.31
2017-07-28T07:46:26.460Z,1010.42
2017-07-28T07:47:49.028Z,1010.48
2017-07-28T07:49:11.122Z,1010.23
2017-07-28T07:50:33.638Z,1010.34
2017-07-28T07:51:55.841Z,1010.27
2017-07-28T07:53:18.026Z,1010.28
2017-07-28T07:54:40.537Z,1010.15
2017-07-28T07:56:02.434Z,1010.16
2017-07-28T07:57:24.637Z,1010.11
2017-07-28T07:58:46.844Z,1010.2
2017-07-28T08:00:08.960Z,1010.26
2017-07-28T08:01:31.135Z,1010.38
2017-07-28T08:02:53.604Z,1010.41
2017-07-28T08:04:16.203Z,1010.6
2017-07-28T08:05:38.926Z,1010.34
2017-07-28T08:07:00.798Z,1010.24
2017-07-28T08:08:22.987Z,1010.29
2017-07-28T08:09:45.170Z,1010.33
2017-07-28T08:11:07.716Z,1010.31
2017-07-28T08:12:29.896Z,1010.2
2017-07-28T08:13:51.453Z,1010.23
2017-07-28T08:15:13.365Z,1010.31
2017-07-28T08:16:36.140Z,1010.22
2017-07-28T08:17:58.633Z,1010.15
2017-07-28T08:19:21.131Z,1010.13
2017-07-28T08:20:43.351Z,1010.11
2017-07-28T08:22:06.102Z,1010.11
2017-07-28T08:23:27.966Z,1010.03
2017-07-28T08:24:50.171Z,1010.12
2017-07-28T08:26:12.088Z,1010.16
2017-07-28T08:27:34.571Z,1010.27
2017-07-28T08:28:57.145Z,1010.27
2017-07-28T08:30:19.405Z,1010.25
2017-07-28T08:31:41.349Z,1010.27
2017-07-28T08:33:03.595Z,1010.32
2017-07-28T08:34:25.771Z,1010.31
2017-07-28T08:35:48.416Z,1010.23
2017-07-28T08:37:09.978Z,1010.34
2017-07-28T08:38:32.455Z,1010.36
2017-07-28T08:39:54.724Z,1010.42
2017-07-28T08:41:17.192Z,1010.5
2017-07-28T08:42:39.676Z,1010.53
2017-07-28T08:44:02.239Z,1010.5
2017-07-28T08:45:24.706Z,1010.53
2017-07-28T08:46:46.867Z,1010.49
2017-07-28T08:48:08.066Z,1010.46
2017-07-28T08:49:30.530Z,1010.44
2017-07-28T08:50:52.700Z,1010.44
2017-07-28T08:52:14.280Z,1010.46
2017-07-28T08:53:36.777Z,1010.51
2017-07-28T08:54:58.918Z,1010.47
2017-07-28T08:56:20.770Z,1010.51
2017-07-28T08:57:42.665Z,1010.45
2017-07-28T08:59:04.837Z,1010.55
2017-07-28T09:00:26.999Z,1010.54
2017-07-28T09:01:49.174Z,1010.52
2017-07-28T09:03:11.027Z,1010.4
2017-07-28T09:04:33.246Z,1010.52
2017-07-28T09:05:55.344Z,1010.47
2017-07-28T09:07:17.521Z,1010.5
2017-07-28T09:08:39.386Z,1010.43
2017-07-28T09:10:01.880Z,1010.42
2017-07-28T09:11:24.730Z,1010.53
2017-07-28T09:12:47.224Z,1010.56
2017-07-28T09:14:09.413Z,1010.51
2017-07-28T09:15:31.679Z,1010.47
2017-07-28T09:16:54.524Z,1010.47
2017-07-28T09:18:16.119Z,1010.55
2017-07-28T09:19:38.045Z,1010.5
2017-07-28T09:21:00.223Z,1010.53
2017-07-28T09:22:22.727Z,1010.44
2017-07-28T09:23:44.914Z,1010.46
2017-07-28T09:25:07.091Z,1010.48
2017-07-28T09:26:28.985Z,1010.48
2017-07-28T09:27:51.471Z,1010.54
2017-07-28T09:29:14.071Z,1010.55
2017-07-28T09:30:36.563Z,1010.52
2017-07-28T09:31:59.058Z,1010.48
2017-07-28T09:33:21.897Z,1010.52
2017-07-28T09:34:44.586Z,1010.41
2017-07-28T09:36:06.859Z,1010.42
2017-07-28T09:37:29.232Z,1010.49
2017-07-28T09:38:51.436Z,1010.37
2017-07-28T09:40:13.295Z,1010.48
2017-07-28T09:41:35.797Z,1010.43
2017-07-28T09:42:57.650Z,1010.47
2017-07-28T09:44:20.445Z,1010.49
2017-07-28T09:45:42.373Z,1010.44
2017-07-28T09:47:04.848Z,1010.33
2017-07-28T09:48:27.405Z,1010.39
2017-07-28T09:49:49.601Z,1010.28
2017-07-28T09:51:12.116Z,1010.29
2017-07-28T09:52:34.623Z,1010.28
2017-07-28T09:53:57.117Z,1010.3
2017-07-28T09:55:19.897Z,1010.31
2017-07-28T09:56:42.050Z,1010.3
2017-07-28T09:58:04.477Z,1010.26
2017-07-28T09:59:26.970Z,1010.25
2017-07-28T10:00:49.402Z,1010.39
2017-07-28T10:02:11.012Z,1010.45
2017-07-28T10:03:33.180Z,1010.42
2017-07-28T10:04:55.377Z,1010.4
2017-07-28T10:06:17.579Z,1010.43
2017-07-28T10:07:39.871Z,1010.51
2017-07-28T10:09:02.047Z,1010.59
2017-07-28T10:10:24.223Z,1010.58
2017-07-28T10:11:46.761Z,1010.63
2017-07-28T10:13:08.948Z,1010.62
2017-07-28T10:14:31.437Z,1010.64
2017-07-28T10:15:53.616Z,1010.65
2017-07-28T10:17:16.050Z,1010.72
2017-07-28T10:18:38.567Z,1010.72
2017-07-28T10:20:00.766Z,1010.8
2017-07-28T10:21:22.968Z,1010.78
2017-07-28T10:22:45.459Z,1010.78
2017-07-28T10:24:07.924Z,1010.83
2017-07-28T10:25:30.129Z,1010.89
2017-07-28T10:26:52.608Z,1010.88
2017-07-28T10:28:14.757Z,1010.82
2017-07-28T10:29:37.234Z,1010.83
2017-07-28T10:30:59.182Z,1010.74
2017-07-28T10:32:21.345Z,1010.74
2017-07-28T10:33:43.469Z,1010.75
2017-07-28T10:35:05.963Z,1010.77
2017-07-28T10:36:27.886Z,1010.7
2017-07-28T10:37:50.437Z,1010.67
2017-07-28T10:39:12.887Z,1010.66
2017-07-28T10:40:35.390Z,1010.66
2017-07-28T10:41:57.247Z,1010.66
2017-07-28T10:43:19.414Z,1010.68
2017-07-28T10:44:41.878Z,1010.67
2017-07-28T10:46:03.678Z,1010.72
2017-07-28T10:47:25.837Z,1010.75
2017-07-28T10:48:48.056Z,1010.74
2017-07-28T10:50:10.473Z,1010.71
2017-07-28T10:51:32.346Z,1010.65
2017-07-28T10:52:54.511Z,1010.64
2017-07-28T10:54:16.371Z,1010.63
2017-07-28T10:55:38.873Z,1010.6
2017-07-28T10:57:01.045Z,1010.56
2017-07-28T10:58:22.891Z,1010.49
2017-07-28T10:59:45.411Z,1010.5
2017-07-28T11:01:08.124Z,1010.52
2017-07-28T11:02:30.280Z,1010.43
2017-07-28T11:03:52.485Z,1010.43
2017-07-28T11:05:14.674Z,1010.36
2017-07-28T11:06:37.123Z,1010.32
2017-07-28T11:07:59.345Z,1010.33
2017-07-28T11:09:21.537Z,1010.34
2017-07-28T11:10:43.725Z,1010.38
2017-07-28T11:12:05.833Z,1010.38
2017-07-28T11:13:28.340Z,1010.39
2017-07-28T11:14:50.512Z,1010.5
2017-07-28T11:16:12.680Z,1010.5
2017-07-28T11:17:35.543Z,1010.59
2017-07-28T11:18:58.041Z,1010.68
2017-07-28T11:20:20.302Z,1010.68
2017-07-28T11:21:42.544Z,1010.7
2017-07-28T11:23:05.064Z,1010.63
2017-07-28T11:24:27.293Z,1010.67
2017-07-28T11:25:49.512Z,1010.54
2017-07-28T11:27:11.792Z,1010.55
2017-07-28T11:28:34.388Z,1010.6
2017-07-28T11:29:56.564Z,1010.59
2017-07-28T11:31:18.221Z,1010.64
2017-07-28T11:32:40.070Z,1010.63
2017-07-28T11:34:02.789Z,1010.63
2017-07-28T11:35:24.685Z,1010.79
2017-07-28T11:36:47.186Z,1010.82
2017-07-28T11:38:09.365Z,1010.84
2017-07-28T11:39:31.534Z,1010.85
2017-07-28T11:40:54.146Z,1010.77
2017-07-28T11:42:16.391Z,1010.79
2017-07-28T11:43:38.567Z,1010.83
2017-07-28T11:45:01.513Z,1010.81
2017-07-28T11:46:23.049Z,1010.83
2017-07-28T11:47:45.523Z,1010.81
2017-07-28T11:49:07.716Z,1010.88
2017-07-28T11:50:30.359Z,1010.91
2017-07-28T11:51:52.643Z,1010.98
2017-07-28T11:53:15.172Z,1011.03
2017-07-28T11:54:37.337Z,1011.03
2017-07-28T11:55:59.933Z,1011.07
2017-07-28T11:57:22.119Z,1011.06
2017-07-28T11:58:44.306Z,1011.08
2017-07-28T12:00:06.810Z,1011.07
2017-07-28T12:01:29.356Z,1011.15
2017-07-28T12:02:51.866Z,1011.19
2017-07-28T12:04:13.479Z,1011.14
2017-07-28T12:05:35.316Z,1011.25
2017-07-28T12:06:58.088Z,1011.24
2017-07-28T12:08:20.347Z,1011.31
2017-07-28T12:09:42.218Z,1011.32
2017-07-28T12:11:04.081Z,1011.29
2017-07-28T12:12:26.555Z,1011.34
2017-07-28T12:13:48.771Z,1011.43
2017-07-28T12:15:10.988Z,1011.49
2017-07-28T12:16:33.466Z,1011.47
2017-07-28T12:17:56.535Z,1011.5
2017-07-28T12:19:19.165Z,1011.47
2017-07-28T12:20:41.648Z,1011.44
2017-07-28T12:22:03.165Z,1011.47
2017-07-28T12:23:26.072Z,1011.5
2017-07-28T12:24:47.936Z,1011.5
2017-07-28T12:26:10.102Z,1011.54
2017-07-28T12:27:32.579Z,1011.55
2017-07-28T12:28:54.389Z,1011.58
2017-07-28T12:30:16.484Z,1011.65
2017-07-28T12:31:38.660Z,1011.66
2017-07-28T12:33:00.817Z,1011.64
2017-07-28T12:34:23.081Z,1011.61
2017-07-28T12:35:44.926Z,1011.6
2017-07-28T12:37:07.483Z,1011.56
2017-07-28T12:38:29.961Z,1011.53
2017-07-28T12:39:52.560Z,1011.48
2017-07-28T12:41:14.716Z,1011.47
2017-07-28T12:42:36.893Z,1011.52
2017-07-28T12:43:59.240Z,1011.51
2017-07-28T12:45:21.326Z,1011.53
2017-07-28T12:46:43.195Z,1011.56
2017-07-28T12:48:05.710Z,1011.56
2017-07-28T12:49:28.316Z,1011.61
2017-07-28T12:50:50.788Z,1011.67
2017-07-28T12:52:13.251Z,1011.7
2017-07-28T12:53:34.801Z,1011.76
2017-07-28T12:54:57.000Z,1011.75
2017-07-28T12:56:19.217Z,1011.75
2017-07-28T12:57:40.750Z,1011.77
2017-07-28T12:59:03.240Z,1011.78
2017-07-28T13:00:25.403Z,1011.85
2017-07-28T13:01:47.883Z,1011.84
2017-07-28T13:03:10.076Z,1011.8
2017-07-28T13:04:31.913Z,1011.77
2017-07-28T13:05:54.097Z,1011.77
2017-07-28T13:07:16.571Z,1011.89
2017-07-28T13:08:39.103Z,1011.9
2017-07-28T13:10:01.315Z,1011.93
2017-07-28T13:11:23.498Z,1011.91
2017-07-28T13:12:45.934Z,1011.95
2017-07-28T13:14:07.789Z,1011.97
2017-07-28T13:15:29.656Z,1011.9
2017-07-28T13:16:51.522Z,1011.87
2017-07-28T13:18:14.337Z,1012.01
2017-07-28T13:19:36.957Z,1012.09
2017-07-28T13:20:58.597Z,1012.16
2017-07-28T13:22:21.092Z,1012.31
2017-07-28T13:23:43.609Z,1012.31
2017-07-28T13:25:06.092Z,1012.34
2017-07-28T13:26:27.963Z,1012.37
2017-07-28T13:27:50.133Z,1012.4
2017-07-28T13:29:12.700Z,1012.39
2017-07-28T13:30:34.556Z,1012.43
2017-07-28T13:31:56.780Z,1012.37
2017-07-28T13:33:19.067Z,1012.25
2017-07-28T13:34:41.215Z,1012.32
2017-07-28T13:36:03.114Z,1012.37
2017-07-28T13:37:25.665Z,1012.28
2017-07-28T13:38:47.831Z,1012.23
2017-07-28T13:40:10.610Z,1012.26
2017-07-28T13:41:32.788Z,1012.3
2017-07-28T13:42:54.648Z,1012.22
2017-07-28T13:44:16.875Z,1012.27
2017-07-28T13:45:39.024Z,1012.24
2017-07-28T13:47:01.213Z,1012.23
2017-07-28T13:48:23.388Z,1012.16
2017-07-28T13:49:45.241Z,1012.21
2017-07-28T13:51:07.379Z,1012.23
2017-07-28T13:52:29.627Z,1012.26
2017-07-28T13:53:51.495Z,1012.19
2017-07-28T13:55:13.361Z,1012.18
2017-07-28T13:56:35.946Z,1012.14
2017-07-28T13:57:58.217Z,1012.05
2017-07-28T13:59:20.805Z,1012.07
2017-07-28T14:00:42.977Z,1012.08
2017-07-28T14:02:05.845Z,1012.18
2017-07-28T14:03:27.733Z,1012.2
2017-07-28T14:04:50.336Z,1012.15
2017-07-28T14:06:12.566Z,1012.14
2017-07-28T14:07:35.045Z,1012.13
2017-07-28T14:08:57.247Z,1012.16
2017-07-28T14:10:19.442Z,1012.14
2017-07-28T14:11:41.637Z,1012.12
2017-07-28T14:13:04.466Z,1012.17
2017-07-28T14:14:26.630Z,1012.21
2017-07-28T14:15:48.276Z,1012.21
2017-07-28T14:17:10.153Z,1012.17
2017-07-28T14:18:32.680Z,1012.06
2017-07-28T14:19:54.535Z,1012
2017-07-28T14:21:16.816Z,1011.96
2017-07-28T14:22:38.694Z,1012.02
2017-07-28T14:24:01.588Z,1011.92
2017-07-28T14:25:24.242Z,1011.96
2017-07-28T14:26:46.965Z,1011.97
2017-07-28T14:28:08.805Z,1011.98
2017-07-28T14:29:30.984Z,1012
2017-07-28T14:30:53.574Z,1012
2017-07-28T14:32:15.159Z,1012.03
2017-07-28T14:33:37.111Z,1012.05
2017-07-28T14:34:59.917Z,1011.93
2017-07-28T14:36:22.525Z,1011.94
2017-07-28T14:37:44.914Z,1011.91
2017-07-28T14:39:06.770Z,1011.92
2017-07-28T14:40:29.606Z,1011.93
2017-07-28T14:41:52.089Z,1011.93
2017-07-28T14:43:14.255Z,1011.9
2017-07-28T14:44:36.437Z,1011.84
2017-07-28T14:45:58.937Z,1011.89
2017-07-28T14:47:21.445Z,1011.96
2017-07-28T14:48:43.290Z,1011.92
2017-07-28T14:50:05.496Z,1011.91
2017-07-28T14:51:27.972Z,1012
2017-07-28T14:52:49.808Z,1011.97
2017-07-28T14:54:12.044Z,1011.94
2017-07-28T14:55:34.204Z,1011.87
2017-07-28T14:56:56.636Z,1011.93
2017-07-28T14:58:18.838Z,1011.94
2017-07-28T14:59:41.365Z,1011.98
2017-07-28T15:01:02.948Z,1012.04
2017-07-28T15:02:25.400Z,1012.07
2017-07-28T15:03:47.898Z,1012.05
2017-07-28T15:05:10.420Z,1012.1
2017-07-28T15:06:32.604Z,1012.12
2017-07-28T15:07:55.485Z,1012.1
2017-07-28T15:09:17.675Z,1012.07
2017-07-28T15:10:39.549Z,1012.02
2017-07-28T15:12:01.417Z,1011.98
2017-07-28T15:13:23.907Z,1011.92
2017-07-28T15:14:45.799Z,1011.87
2017-07-28T15:16:08.013Z,1011.79
2017-07-28T15:17:30.199Z,1011.79
2017-07-28T15:18:52.376Z,1011.88
2017-07-28T15:20:14.886Z,1011.87
2017-07-28T15:21:37.376Z,1011.88
2017-07-28T15:22:59.284Z,1011.98
2017-07-28T15:24:22.138Z,1011.99
2017-07-28T15:25:44.310Z,1011.97
2017-07-28T15:27:06.489Z,1012.03
2017-07-28T15:28:28.974Z,1012.05
2017-07-28T15:29:51.463Z,1012.04
2017-07-28T15:31:13.995Z,1012.09
2017-07-28T15:32:36.168Z,1012.22
2017-07-28T15:33:57.715Z,1012.23
2017-07-28T15:35:20.298Z,1012.2
2017-07-28T15:36:42.469Z,1012.25
2017-07-28T15:38:04.570Z,1012.3
2017-07-28T15:39:27.066Z,1012.28
2017-07-28T15:40:49.853Z,1012.29
2017-07-28T15:42:12.419Z,1012.32
2017-07-28T15:43:34.924Z,1012.18
2017-07-28T15:44:57.120Z,1012.11
2017-07-28T15:46:19.567Z,1012.13
2017-07-28T15:47:42.086Z,1012.14
2017-07-28T15:49:04.285Z,1012.22
2017-07-28T15:50:26.485Z,1012.23
2017-07-28T15:51:48.622Z,1012.2
2017-07-28T15:53:11.228Z,1012.21
2017-07-28T15:54:33.198Z,1012.25
2017-07-28T15:55:55.386Z,1012.28
2017-07-28T15:57:17.316Z,1012.27
2017-07-28T15:58:39.156Z,1012.28
2017-07-28T16:00:01.328Z,1012.26
2017-07-28T16:01:23.165Z,1012.15
2017-07-28T16:02:45.029Z,1012.14
2017-07-28T16:04:07.225Z,1012.1
2017-07-28T16:05:29.408Z,1012.11
2017-07-28T16:06:51.904Z,1012.11
2017-07-28T16:08:14.389Z,1012.13
2017-07-28T16:09:36.405Z,1012.12
2017-07-28T16:10:58.447Z,1012.14
2017-07-28T16:12:20.316Z,1012.14
2017-07-28T16:13:42.557Z,1012.13
2017-07-28T16:15:05.072Z,1012.1
2017-07-28T16:16:27.591Z,1012.04
2017-07-28T16:17:49.442Z,1012.07
2017-07-28T16:19:11.647Z,1012.05
2017-07-28T16:20:33.812Z,1012
2017-07-28T16:21:55.815Z,1011.96
2017-07-28T16:23:17.990Z,1011.99
2017-07-28T16:24:39.832Z,1011.98
2017-07-28T16:26:02.483Z,1012.01
2017-07-28T16:27:24.357Z,1012.1
2017-07-28T16:28:46.856Z,1012.02
2017-07-28T16:30:08.671Z,1012.06
2017-07-28T16:31:30.948Z,1012.03
2017-07-28T16:32:53.437Z,1012.14
2017-07-28T16:34:15.935Z,1012.07
2017-07-28T16:35:38.413Z,1012.1
2017-07-28T16:37:00.599Z,1012.11